SWA4237 KSAN-KLAS
Flight info
| Callsign | SWA4237 |
|---|---|
| Flight time | 0h 48m |
| Altitude | 29000 |
| Route | PADRZ2 CHKNN SEBBY YELAH MISEN RNDRZ4 |
| Aircraft | B738/M-SDE2E3FGHIRWXY/LB1 |
Departure
| Time | 2026-05-03 23:49 |
|---|---|
| Airport | San Diego International Airport (KSAN) |
Arrival
| Time | 2026-05-04 00:38 |
|---|---|
| Airport | Harry Reid International Airport (KLAS) |
| Time | Latitude | Longitude | Altitude | Speed | Heading |
|---|---|---|---|---|---|
| 2026-05-03 23:24 | 32.73317 | -117.19566 | 19 ft | 0 kts | 230° |
| 2026-05-03 23:40 | 32.73323 | -117.19558 | 20 ft | 4 kts | 227° |
| 2026-05-03 23:40 | 32.73342 | -117.19537 | 21 ft | 4 kts | 209° |
| 2026-05-03 23:40 | 32.73367 | -117.19527 | 23 ft | 4 kts | 180° |
| 2026-05-03 23:41 | 32.73389 | -117.19534 | 25 ft | 4 kts | 127° |
| 2026-05-03 23:41 | 32.73394 | -117.19542 | 23 ft | 1 kts | 107° |
| 2026-05-03 23:44 | 32.73393 | -117.19539 | 23 ft | 3 kts | 108° |
| 2026-05-03 23:44 | 32.73374 | -117.19459 | 25 ft | 18 kts | 106° |
| 2026-05-03 23:44 | 32.73325 | -117.19262 | 21 ft | 29 kts | 107° |
| 2026-05-03 23:44 | 32.73272 | -117.19035 | 24 ft | 28 kts | 104° |
| 2026-05-03 23:45 | 32.73222 | -117.18829 | 22 ft | 26 kts | 105° |
| 2026-05-03 23:45 | 32.73174 | -117.18635 | 19 ft | 23 kts | 109° |
| 2026-05-03 23:45 | 32.73130 | -117.18455 | 19 ft | 22 kts | 107° |
| 2026-05-03 23:45 | 32.73087 | -117.18279 | 16 ft | 22 kts | 105° |
| 2026-05-03 23:46 | 32.73052 | -117.18136 | 13 ft | 10 kts | 105° |
| 2026-05-03 23:46 | 32.73022 | -117.18018 | 14 ft | 22 kts | 108° |
| 2026-05-03 23:46 | 32.72974 | -117.17814 | 11 ft | 24 kts | 104° |
| 2026-05-03 23:46 | 32.72950 | -117.17693 | 12 ft | 10 kts | 90° |
| 2026-05-03 23:47 | 32.72953 | -117.17667 | 13 ft | 0 kts | 74° |
| 2026-05-03 23:47 | 32.72954 | -117.17663 | 13 ft | 3 kts | 74° |
| 2026-05-03 23:47 | 32.72963 | -117.17628 | 15 ft | 6 kts | 71° |
| 2026-05-03 23:47 | 32.72992 | -117.17582 | 17 ft | 9 kts | 25° |
| 2026-05-03 23:48 | 32.73032 | -117.17618 | 14 ft | 6 kts | 285° |
| 2026-05-03 23:48 | 32.73035 | -117.17631 | 14 ft | 1 kts | 285° |
| 2026-05-03 23:48 | 32.73038 | -117.17644 | 14 ft | 2 kts | 286° |
| 2026-05-03 23:48 | 32.73042 | -117.17659 | 14 ft | 3 kts | 283° |
| 2026-05-03 23:49 | 32.73082 | -117.17834 | 13 ft | 53 kts | 285° |
| 2026-05-03 23:49 | 32.73250 | -117.18523 | 19 ft | 118 kts | 286° |
| 2026-05-03 23:49 | 32.73536 | -117.19647 | 139 ft | 158 kts | 288° |
| 2026-05-03 23:49 | 32.73864 | -117.20871 | 925 ft | 152 kts | 289° |
| 2026-05-03 23:50 | 32.74318 | -117.22039 | 1543 ft | 159 kts | 305° |
| 2026-05-03 23:50 | 32.74800 | -117.22703 | 1897 ft | 166 kts | 309° |
| 2026-05-03 23:50 | 32.75722 | -117.24383 | 2340 ft | 198 kts | 298° |
| 2026-05-03 23:50 | 32.76489 | -117.25839 | 2542 ft | 220 kts | 303° |
| 2026-05-03 23:51 | 32.77392 | -117.27386 | 2888 ft | 237 kts | 303° |
| 2026-05-03 23:51 | 32.78372 | -117.29079 | 3321 ft | 254 kts | 303° |
| 2026-05-03 23:51 | 32.79358 | -117.30799 | 4117 ft | 256 kts | 302° |
| 2026-05-03 23:51 | 32.80383 | -117.32545 | 4852 ft | 261 kts | 304° |
| 2026-05-03 23:52 | 32.81494 | -117.34289 | 5491 ft | 268 kts | 304° |
| 2026-05-03 23:52 | 32.82651 | -117.36077 | 6150 ft | 276 kts | 304° |
| 2026-05-03 23:52 | 32.83840 | -117.37899 | 6825 ft | 281 kts | 303° |
| 2026-05-03 23:52 | 32.85041 | -117.39740 | 7593 ft | 281 kts | 303° |
| 2026-05-03 23:53 | 32.86241 | -117.41588 | 8363 ft | 283 kts | 303° |
| 2026-05-03 23:53 | 32.87444 | -117.43448 | 9089 ft | 286 kts | 303° |
| 2026-05-03 23:53 | 32.88660 | -117.45331 | 9815 ft | 289 kts | 303° |
| 2026-05-03 23:53 | 32.89893 | -117.47244 | 10379 ft | 297 kts | 302° |
| 2026-05-03 23:54 | 32.91196 | -117.49282 | 10541 ft | 320 kts | 303° |
| 2026-05-03 23:54 | 32.92570 | -117.51429 | 10703 ft | 340 kts | 303° |
| 2026-05-03 23:54 | 32.94049 | -117.53730 | 10863 ft | 360 kts | 303° |
| 2026-05-03 23:54 | 32.95596 | -117.56139 | 11259 ft | 370 kts | 303° |
| 2026-05-03 23:55 | 32.97165 | -117.58583 | 11901 ft | 373 kts | 303° |
| 2026-05-03 23:55 | 32.98745 | -117.61042 | 12580 ft | 374 kts | 303° |
| 2026-05-03 23:55 | 33.00332 | -117.63518 | 13250 ft | 377 kts | 303° |
| 2026-05-03 23:55 | 33.01935 | -117.66020 | 13841 ft | 382 kts | 303° |
| 2026-05-03 23:56 | 33.03550 | -117.68546 | 14454 ft | 383 kts | 302° |
| 2026-05-03 23:56 | 33.05161 | -117.71064 | 15197 ft | 382 kts | 302° |
| 2026-05-03 23:56 | 33.06819 | -117.73530 | 15923 ft | 384 kts | 308° |
| 2026-05-03 23:56 | 33.08825 | -117.75684 | 16591 ft | 390 kts | 314° |
| 2026-05-03 23:57 | 33.10936 | -117.77728 | 17196 ft | 392 kts | 314° |
| 2026-05-03 23:57 | 33.12763 | -117.79498 | 17715 ft | 394 kts | 313° |
| 2026-05-03 23:57 | 33.14871 | -117.81593 | 18280 ft | 394 kts | 312° |
| 2026-05-03 23:57 | 33.16965 | -117.83714 | 18778 ft | 396 kts | 311° |
| 2026-05-03 23:58 | 33.19064 | -117.85856 | 19239 ft | 398 kts | 311° |
| 2026-05-03 23:58 | 33.21195 | -117.87992 | 19728 ft | 401 kts | 313° |
| 2026-05-03 23:58 | 33.23363 | -117.90098 | 20185 ft | 403 kts | 313° |
| 2026-05-03 23:58 | 33.25549 | -117.92219 | 20663 ft | 405 kts | 312° |
| 2026-05-03 23:59 | 33.27739 | -117.94349 | 21120 ft | 407 kts | 312° |
| 2026-05-03 23:59 | 33.29941 | -117.96494 | 21569 ft | 409 kts | 312° |
| 2026-05-03 23:59 | 33.32157 | -117.98647 | 22010 ft | 411 kts | 312° |
| 2026-05-03 23:59 | 33.34386 | -118.00810 | 22450 ft | 413 kts | 312° |
| 2026-05-04 00:00 | 33.36616 | -118.02987 | 22872 ft | 415 kts | 312° |
| 2026-05-04 00:00 | 33.38857 | -118.05182 | 23318 ft | 417 kts | 312° |
| 2026-05-04 00:00 | 33.41104 | -118.07386 | 23662 ft | 420 kts | 311° |
| 2026-05-04 00:00 | 33.43370 | -118.09612 | 23988 ft | 421 kts | 311° |
| 2026-05-04 00:01 | 33.45634 | -118.11835 | 24352 ft | 422 kts | 311° |
| 2026-05-04 00:01 | 33.47907 | -118.14069 | 24723 ft | 422 kts | 311° |
| 2026-05-04 00:01 | 33.50176 | -118.16320 | 25067 ft | 423 kts | 311° |
| 2026-05-04 00:01 | 33.52423 | -118.18530 | 25395 ft | 425 kts | 311° |
| 2026-05-04 00:02 | 33.54714 | -118.20784 | 25721 ft | 426 kts | 311° |
| 2026-05-04 00:02 | 33.57013 | -118.23033 | 26047 ft | 428 kts | 312° |
| 2026-05-04 00:02 | 33.59544 | -118.24944 | 26370 ft | 447 kts | 324° |
| 2026-05-04 00:02 | 33.62445 | -118.26419 | 26717 ft | 452 kts | 327° |
| 2026-05-04 00:03 | 33.65313 | -118.27886 | 27003 ft | 452 kts | 326° |
| 2026-05-04 00:03 | 33.68196 | -118.29403 | 27301 ft | 456 kts | 328° |
| 2026-05-04 00:03 | 33.71390 | -118.30217 | 27627 ft | 486 kts | 347° |
| 2026-05-04 00:03 | 33.74821 | -118.29784 | 28094 ft | 510 kts | 5° |
| 2026-05-04 00:04 | 33.78145 | -118.28137 | 28587 ft | 531 kts | 23° |
| 2026-05-04 00:04 | 33.81049 | -118.25369 | 28971 ft | 550 kts | 41° |
| 2026-05-04 00:04 | 33.85647 | -118.17983 | 28977 ft | 553 kts | 52° |
| 2026-05-04 00:05 | 33.89743 | -118.10487 | 28967 ft | 548 kts | 52° |
| 2026-05-04 00:05 | 33.94055 | -118.02951 | 28968 ft | 548 kts | 51° |
| 2026-05-04 00:06 | 33.98510 | -117.95457 | 28973 ft | 548 kts | 50° |
| 2026-05-04 00:06 | 34.02910 | -117.88040 | 28997 ft | 548 kts | 50° |
| 2026-05-04 00:07 | 34.07358 | -117.80500 | 28989 ft | 550 kts | 51° |
| 2026-05-04 00:07 | 34.12004 | -117.73086 | 28991 ft | 555 kts | 46° |
| 2026-05-04 00:08 | 34.16977 | -117.65905 | 28983 ft | 565 kts | 45° |
| 2026-05-04 00:08 | 34.21982 | -117.58713 | 28987 ft | 569 kts | 45° |
| 2026-05-04 00:09 | 34.27041 | -117.51315 | 28927 ft | 570 kts | 46° |
| 2026-05-04 00:09 | 34.32043 | -117.43973 | 28922 ft | 566 kts | 46° |
| 2026-05-04 00:10 | 34.37035 | -117.36645 | 28916 ft | 566 kts | 46° |
| 2026-05-04 00:10 | 34.42033 | -117.29250 | 28884 ft | 565 kts | 46° |
| 2026-05-04 00:11 | 34.46970 | -117.21920 | 28911 ft | 565 kts | 46° |
| 2026-05-04 00:11 | 34.51944 | -117.14517 | 28862 ft | 565 kts | 47° |
| 2026-05-04 00:12 | 34.56894 | -117.07168 | 28828 ft | 564 kts | 46° |
| 2026-05-04 00:12 | 34.61863 | -116.99771 | 28806 ft | 564 kts | 46° |
| 2026-05-04 00:13 | 34.66801 | -116.92400 | 28800 ft | 564 kts | 46° |
| 2026-05-04 00:13 | 34.70923 | -116.86237 | 28788 ft | 563 kts | 47° |
| 2026-05-04 00:14 | 34.75855 | -116.78835 | 28797 ft | 563 kts | 46° |
| 2026-05-04 00:14 | 34.80775 | -116.71460 | 28790 ft | 563 kts | 47° |
| 2026-05-04 00:15 | 34.85789 | -116.64166 | 28784 ft | 559 kts | 40° |
| 2026-05-04 00:15 | 34.91692 | -116.58156 | 28800 ft | 551 kts | 31° |
| 2026-05-04 00:16 | 34.97791 | -116.52451 | 28208 ft | 554 kts | 32° |
| 2026-05-04 00:16 | 35.00786 | -116.49583 | 27642 ft | 553 kts | 32° |
| 2026-05-04 00:16 | 35.03789 | -116.46667 | 27055 ft | 554 kts | 33° |
| 2026-05-04 00:17 | 35.06803 | -116.43724 | 26454 ft | 554 kts | 33° |
| 2026-05-04 00:17 | 35.09784 | -116.40793 | 25851 ft | 546 kts | 34° |
| 2026-05-04 00:17 | 35.12567 | -116.37647 | 25252 ft | 544 kts | 42° |
| 2026-05-04 00:17 | 35.15101 | -116.34304 | 24682 ft | 537 kts | 44° |
| 2026-05-04 00:18 | 35.17608 | -116.30921 | 24109 ft | 532 kts | 44° |
| 2026-05-04 00:18 | 35.20113 | -116.27602 | 23542 ft | 527 kts | 44° |
| 2026-05-04 00:18 | 35.22625 | -116.24343 | 22844 ft | 522 kts | 43° |
| 2026-05-04 00:18 | 35.25092 | -116.21114 | 22285 ft | 514 kts | 45° |
| 2026-05-04 00:19 | 35.27418 | -116.17902 | 21726 ft | 508 kts | 47° |
| 2026-05-04 00:19 | 35.29735 | -116.14651 | 21155 ft | 501 kts | 47° |
| 2026-05-04 00:19 | 35.32026 | -116.11473 | 20600 ft | 493 kts | 47° |
| 2026-05-04 00:19 | 35.34292 | -116.08362 | 20121 ft | 484 kts | 47° |
| 2026-05-04 00:20 | 35.36494 | -116.05341 | 19596 ft | 477 kts | 48° |
| 2026-05-04 00:20 | 35.38689 | -116.02310 | 19050 ft | 468 kts | 48° |
| 2026-05-04 00:20 | 35.40816 | -115.99380 | 18520 ft | 451 kts | 49° |
| 2026-05-04 00:20 | 35.42867 | -115.96555 | 18003 ft | 435 kts | 49° |
| 2026-05-04 00:21 | 35.44849 | -115.93828 | 17415 ft | 423 kts | 50° |
| 2026-05-04 00:21 | 35.46803 | -115.91143 | 17055 ft | 416 kts | 49° |
| 2026-05-04 00:21 | 35.48691 | -115.88549 | 16922 ft | 405 kts | 49° |
| 2026-05-04 00:21 | 35.50548 | -115.85992 | 16759 ft | 404 kts | 50° |
| 2026-05-04 00:22 | 35.52410 | -115.83406 | 16620 ft | 423 kts | 50° |
| 2026-05-04 00:22 | 35.54385 | -115.80669 | 16434 ft | 429 kts | 50° |
| 2026-05-04 00:22 | 35.56344 | -115.77960 | 16217 ft | 413 kts | 49° |
| 2026-05-04 00:22 | 35.58180 | -115.75420 | 16040 ft | 391 kts | 50° |
| 2026-05-04 00:23 | 35.59950 | -115.72976 | 15861 ft | 372 kts | 49° |
| 2026-05-04 00:23 | 35.61665 | -115.70659 | 15677 ft | 356 kts | 50° |
| 2026-05-04 00:23 | 35.63285 | -115.68483 | 15511 ft | 345 kts | 50° |
| 2026-05-04 00:23 | 35.64892 | -115.66320 | 15340 ft | 341 kts | 50° |
| 2026-05-04 00:24 | 35.66491 | -115.64168 | 15201 ft | 338 kts | 50° |
| 2026-05-04 00:24 | 35.68047 | -115.62045 | 15055 ft | 331 kts | 50° |
| 2026-05-04 00:24 | 35.69613 | -115.59924 | 14878 ft | 338 kts | 50° |
| 2026-05-04 00:24 | 35.71179 | -115.57801 | 14723 ft | 340 kts | 49° |
| 2026-05-04 00:25 | 35.72826 | -115.55685 | 14528 ft | 341 kts | 41° |
| 2026-05-04 00:25 | 35.74763 | -115.54078 | 14363 ft | 340 kts | 30° |
| 2026-05-04 00:25 | 35.76835 | -115.52665 | 14191 ft | 339 kts | 29° |
| 2026-05-04 00:25 | 35.78912 | -115.51260 | 14026 ft | 337 kts | 29° |
| 2026-05-04 00:26 | 35.80914 | -115.49889 | 13859 ft | 337 kts | 30° |
| 2026-05-04 00:26 | 35.82959 | -115.48477 | 13678 ft | 335 kts | 30° |
| 2026-05-04 00:26 | 35.84987 | -115.47061 | 13512 ft | 334 kts | 31° |
| 2026-05-04 00:26 | 35.86978 | -115.45660 | 13320 ft | 333 kts | 31° |
| 2026-05-04 00:27 | 35.88995 | -115.44245 | 13137 ft | 332 kts | 31° |
| 2026-05-04 00:27 | 35.91008 | -115.42836 | 12927 ft | 333 kts | 30° |
| 2026-05-04 00:27 | 35.93035 | -115.41417 | 12526 ft | 339 kts | 31° |
| 2026-05-04 00:27 | 35.95107 | -115.39977 | 12162 ft | 341 kts | 31° |
| 2026-05-04 00:28 | 35.97153 | -115.38546 | 11755 ft | 342 kts | 31° |
| 2026-05-04 00:28 | 35.99177 | -115.37031 | 11347 ft | 337 kts | 41° |
| 2026-05-04 00:28 | 36.00623 | -115.34883 | 10994 ft | 322 kts | 68° |
| 2026-05-04 00:28 | 36.01312 | -115.32369 | 10783 ft | 308 kts | 84° |
| 2026-05-04 00:29 | 36.01409 | -115.29766 | 10590 ft | 300 kts | 98° |
| 2026-05-04 00:29 | 36.01282 | -115.27206 | 10390 ft | 300 kts | 98° |
| 2026-05-04 00:29 | 36.01131 | -115.24643 | 10181 ft | 297 kts | 98° |
| 2026-05-04 00:29 | 36.00992 | -115.22134 | 9976 ft | 294 kts | 98° |
| 2026-05-04 00:30 | 36.00855 | -115.19644 | 9740 ft | 286 kts | 99° |
| 2026-05-04 00:30 | 36.00727 | -115.17226 | 9530 ft | 275 kts | 98° |
| 2026-05-04 00:30 | 36.00613 | -115.14929 | 9327 ft | 265 kts | 99° |
| 2026-05-04 00:30 | 36.00505 | -115.12688 | 9140 ft | 256 kts | 99° |
| 2026-05-04 00:31 | 36.00396 | -115.10521 | 8959 ft | 250 kts | 99° |
| 2026-05-04 00:31 | 36.00284 | -115.08377 | 8738 ft | 249 kts | 99° |
| 2026-05-04 00:31 | 36.00173 | -115.06240 | 8526 ft | 249 kts | 99° |
| 2026-05-04 00:31 | 36.00063 | -115.04102 | 8311 ft | 250 kts | 98° |
| 2026-05-04 00:32 | 35.99952 | -115.01966 | 8090 ft | 252 kts | 98° |
| 2026-05-04 00:32 | 35.99885 | -114.99790 | 7741 ft | 255 kts | 96° |
| 2026-05-04 00:32 | 35.99877 | -114.97599 | 7412 ft | 254 kts | 95° |
| 2026-05-04 00:32 | 35.99875 | -114.95415 | 7115 ft | 255 kts | 97° |
| 2026-05-04 00:33 | 36.00060 | -114.93207 | 6775 ft | 264 kts | 75° |
| 2026-05-04 00:33 | 36.02746 | -114.90306 | 6082 ft | 264 kts | 14° |
| 2026-05-04 00:33 | 36.04509 | -114.90337 | 5738 ft | 252 kts | 341° |
| 2026-05-04 00:34 | 36.06079 | -114.91166 | 5433 ft | 242 kts | 323° |
| 2026-05-04 00:34 | 36.07238 | -114.92590 | 5099 ft | 230 kts | 288° |
| 2026-05-04 00:34 | 36.07472 | -114.94437 | 4846 ft | 211 kts | 258° |
| 2026-05-04 00:34 | 36.07418 | -114.96207 | 4571 ft | 207 kts | 261° |
| 2026-05-04 00:35 | 36.07397 | -114.97963 | 4294 ft | 202 kts | 262° |
| 2026-05-04 00:35 | 36.07387 | -114.99678 | 4053 ft | 195 kts | 262° |
| 2026-05-04 00:35 | 36.07373 | -115.01337 | 3841 ft | 194 kts | 263° |
| 2026-05-04 00:35 | 36.07374 | -115.02995 | 3601 ft | 191 kts | 264° |
| 2026-05-04 00:36 | 36.07378 | -115.04609 | 3356 ft | 187 kts | 265° |
| 2026-05-04 00:36 | 36.07380 | -115.06168 | 3162 ft | 175 kts | 263° |
| 2026-05-04 00:36 | 36.07374 | -115.07624 | 2934 ft | 162 kts | 263° |
| 2026-05-04 00:36 | 36.07402 | -115.08936 | 2747 ft | 150 kts | 262° |
| 2026-05-04 00:37 | 36.07403 | -115.10158 | 2533 ft | 139 kts | 260° |
| 2026-05-04 00:37 | 36.07389 | -115.11363 | 2308 ft | 143 kts | 263° |
| 2026-05-04 00:37 | 36.07382 | -115.12602 | 2118 ft | 143 kts | 262° |
| 2026-05-04 00:37 | 36.07367 | -115.13728 | 2087 ft | 116 kts | 275° |
| 2026-05-04 00:38 | 36.07356 | -115.14555 | 2119 ft | 82 kts | 269° |
| 2026-05-04 00:38 | 36.07364 | -115.15118 | 2128 ft | 52 kts | 272° |
| 2026-05-04 00:38 | 36.07423 | -115.15392 | 2139 ft | 23 kts | 295° |
| 2026-05-04 00:38 | 36.07477 | -115.15526 | 2141 ft | 14 kts | 299° |
| 2026-05-04 00:39 | 36.07532 | -115.15613 | 2141 ft | 10 kts | 317° |
| 2026-05-04 00:39 | 36.07539 | -115.15621 | 2143 ft | 0 kts | 318° |
| 2026-05-04 00:39 | 36.07544 | -115.15627 | 2142 ft | 3 kts | 316° |
| 2026-05-04 00:40 | 36.07587 | -115.15680 | 2145 ft | 11 kts | 315° |
| 2026-05-04 00:40 | 36.07647 | -115.15753 | 2146 ft | 14 kts | 314° |
| 2026-05-04 00:40 | 36.07714 | -115.15815 | 2144 ft | 9 kts | 337° |
| 2026-05-04 00:40 | 36.07772 | -115.15823 | 2148 ft | 8 kts | 1° |
| 2026-05-04 00:41 | 36.07863 | -115.15818 | 2147 ft | 14 kts | 17° |
| 2026-05-04 00:41 | 36.07878 | -115.15709 | 2144 ft | 14 kts | 91° |
| 2026-05-04 00:41 | 36.07879 | -115.15592 | 2142 ft | 13 kts | 87° |
| 2026-05-04 00:41 | 36.07878 | -115.15464 | 2140 ft | 16 kts | 92° |
| 2026-05-04 00:42 | 36.07879 | -115.15320 | 2136 ft | 17 kts | 88° |
| 2026-05-04 00:42 | 36.07880 | -115.15166 | 2130 ft | 19 kts | 90° |
| 2026-05-04 00:42 | 36.07879 | -115.15003 | 2125 ft | 18 kts | 85° |
| 2026-05-04 00:42 | 36.07962 | -115.14895 | 2117 ft | 17 kts | 32° |
| 2026-05-04 00:43 | 36.08022 | -115.14872 | 2114 ft | 6 kts | 2° |
| 2026-05-04 00:43 | 36.08084 | -115.14896 | 2113 ft | 12 kts | 340° |
| 2026-05-04 00:43 | 36.08149 | -115.14874 | 2112 ft | 4 kts | 69° |
| 2026-05-04 00:43 | 36.08158 | -115.14845 | 2112 ft | 3 kts | 66° |
| 2026-05-04 00:44 | 36.08165 | -115.14827 | 2115 ft | 1 kts | 66° |
| 2026-05-04 00:44 | 36.08166 | -115.14824 | 2115 ft | 0 kts | 65° |